Time;durP1;ratioP1;P1;durP2;ratioP2;P2;SDS_P1;SDS_P2;PMS_P1;PMS_P2;Temp;Humidity;BMP_temperature;BMP_pressure;BME280_temperature;BME280_humidity;BME280_pressure;Samples;Min_cycle;Max_cycle;Signal;HPM_P1;HPM_P2
2023/06/05 00:00:26;;;;;;;;;;;11.80;99.90;;;;;;4873657;29;19971;-77
2023/06/05 00:02:52;;;;;;;;;;;11.70;99.90;;;;;;4873730;29;19982;-77
2023/06/05 00:05:20;;;;;;;;;;;11.70;99.90;;;;;;4875669;29;19930;-79
2023/06/05 00:07:45;;;;;;;;;;;11.70;99.90;;;;;;4882339;29;20027;-76
2023/06/05 00:10:13;;;;;;;;;;;11.70;99.90;;;;;;4882005;29;19971;-77
2023/06/05 00:12:40;;;;;;;;;;;11.70;99.90;;;;;;4869322;29;19978;-77
2023/06/05 00:15:05;;;;;;;;;;;11.70;99.90;;;;;;4872999;29;19934;-77
2023/06/05 00:17:31;;;;;;;;;;;11.70;99.90;;;;;;4863856;29;19932;-76
2023/06/05 00:19:58;;;;;;;;;;;11.80;99.90;;;;;;4875873;29;20317;-76
2023/06/05 00:22:25;;;;;;;;;;;11.70;99.90;;;;;;4875715;29;19928;-77
2023/06/05 00:24:51;;;;;;;;;;;11.70;99.90;;;;;;4875716;29;19928;-77
2023/06/05 00:27:16;;;;;;;;;;;11.70;99.90;;;;;;4879477;29;19927;-77
2023/06/05 00:29:45;;;;;;;;;;;11.70;99.90;;;;;;4892604;29;19928;-78
2023/06/05 00:32:10;;;;;;;;;;;11.80;99.90;;;;;;4896623;29;19932;-77
2023/06/05 00:34:36;;;;;;;;;;;11.80;99.90;;;;;;4899340;29;19975;-77
2023/06/05 00:37:02;;;;;;;;;;;12.00;99.90;;;;;;4885750;29;19928;-76
2023/06/05 00:39:30;;;;;;;;;;;11.90;99.90;;;;;;4900172;29;19999;-77
2023/06/05 00:41:56;;;;;;;;;;;11.90;99.90;;;;;;4884775;29;19927;-77
2023/06/05 00:44:21;;;;;;;;;;;11.80;99.90;;;;;;4895588;29;19936;-77
2023/06/05 00:46:48;;;;;;;;;;;11.80;99.90;;;;;;4897786;29;19931;-77
2023/06/05 00:49:14;;;;;;;;;;;11.90;99.90;;;;;;4897630;29;19935;-76
2023/06/05 00:51:41;;;;;;;;;;;11.90;99.90;;;;;;4903929;29;20306;-76
2023/06/05 00:54:07;;;;;;;;;;;11.90;99.90;;;;;;4899311;29;20026;-78
2023/06/05 00:56:35;;;;;;;;;;;12.20;99.90;;;;;;4901510;29;20089;-78
2023/06/05 00:59:01;;;;;;;;;;;11.90;99.90;;;;;;4896038;29;19928;-77
2023/06/05 01:01:28;;;;;;;;;;;12.00;99.90;;;;;;4880422;29;20297;-76
2023/06/05 01:03:57;;;;;;;;;;;11.90;99.90;;;;;;4886347;29;19927;-77
2023/06/05 01:06:26;;;;;;;;;;;11.90;99.90;;;;;;4901439;29;19950;-77
2023/06/05 01:08:53;;;;;;;;;;;11.80;99.90;;;;;;4907600;29;20014;-77
2023/06/05 01:11:19;;;;;;;;;;;11.90;99.90;;;;;;4901965;29;19934;-76
2023/06/05 01:13:51;;;;;;;;;;;12.10;99.90;;;;;;4895170;29;20297;-77
2023/06/05 01:16:18;;;;;;;;;;;12.00;99.90;;;;;;4884835;29;19927;-77
2023/06/05 01:18:45;;;;;;;;;;;12.00;99.90;;;;;;4882090;29;19927;-77
2023/06/05 01:21:13;;;;;;;;;;;12.10;99.90;;;;;;4901757;29;20386;-76
2023/06/05 01:23:44;;;;;;;;;;;12.00;99.90;;;;;;4904675;29;19935;-77
2023/06/05 01:26:12;;;;;;;;;;;12.00;99.90;;;;;;4899340;29;19928;-77
2023/06/05 01:28:38;;;;;;;;;;;12.40;99.90;;;;;;4878623;29;19927;-77
2023/06/05 01:31:06;;;;;;;;;;;11.90;99.90;;;;;;4895191;29;20010;-77
2023/06/05 01:33:34;;;;;;;;;;;12.00;99.90;;;;;;4894967;29;19927;-77
2023/06/05 01:36:04;;;;;;;;;;;11.90;99.90;;;;;;4896842;29;19934;-77
2023/06/05 01:38:32;;;;;;;;;;;11.90;99.90;;;;;;4894890;29;19994;-77
2023/06/05 01:40:58;;;;;;;;;;;11.90;99.90;;;;;;4894406;29;19932;-77
2023/06/05 01:43:24;;;;;;;;;;;11.90;99.90;;;;;;4898501;29;19927;-78
2023/06/05 01:45:50;;;;;;;;;;;11.80;99.90;;;;;;4893026;29;19932;-76
2023/06/05 01:48:15;;;;;;;;;;;11.80;99.90;;;;;;4872189;29;19924;-76
2023/06/05 01:50:42;;;;;;;;;;;11.80;99.90;;;;;;4896610;29;19935;-77
2023/06/05 01:53:07;;;;;;;;;;;12.50;99.90;;;;;;4881338;29;19935;-77
2023/06/05 01:55:33;;;;;;;;;;;11.90;99.90;;;;;;4882389;29;20369;-77
2023/06/05 01:57:59;;;;;;;;;;;12.60;99.90;;;;;;4892119;29;20412;-76
2023/06/05 02:00:25;;;;;;;;;;;12.30;99.90;;;;;;4889122;29;19932;-77
2023/06/05 02:02:51;;;;;;;;;;;12.20;99.90;;;;;;4892610;29;19982;-76
2023/06/05 02:05:17;;;;;;;;;;;11.80;99.90;;;;;;4900475;29;19927;-76
2023/06/05 02:07:49;;;;;;;;;;;11.90;99.90;;;;;;4885814;29;19983;-77
2023/06/05 02:10:14;;;;;;;;;;;11.80;99.90;;;;;;4898478;29;19927;-77
2023/06/05 02:12:42;;;;;;;;;;;11.90;99.90;;;;;;4896877;29;20300;-76
2023/06/05 02:15:12;;;;;;;;;;;11.90;99.90;;;;;;4883844;29;20293;-77
2023/06/05 02:17:39;;;;;;;;;;;11.90;99.90;;;;;;4899160;29;20323;-77
2023/06/05 02:20:05;;;;;;;;;;;11.90;99.90;;;;;;4900782;29;19933;-76
2023/06/05 02:22:30;;;;;;;;;;;11.80;99.90;;;;;;4883481;29;19932;-77
2023/06/05 02:24:56;;;;;;;;;;;12.20;99.90;;;;;;4896611;29;19981;-77
2023/06/05 02:27:24;;;;;;;;;;;11.90;99.90;;;;;;4867476;29;19935;-77
2023/06/05 02:29:50;;;;;;;;;;;11.80;99.90;;;;;;4900572;29;19938;-77
2023/06/05 02:32:15;;;;;;;;;;;11.80;99.90;;;;;;4897294;29;19958;-77
2023/06/05 02:34:41;;;;;;;;;;;11.80;99.90;;;;;;4894573;29;19963;-76
2023/06/05 02:37:08;;;;;;;;;;;11.90;99.90;;;;;;4876925;29;19928;-76
2023/06/05 02:39:34;;;;;;;;;;;11.90;99.90;;;;;;4899487;29;19983;-77
2023/06/05 02:41:59;;;;;;;;;;;11.80;99.90;;;;;;4879979;29;19931;-77
2023/06/05 02:44:25;;;;;;;;;;;11.80;99.90;;;;;;4882906;29;19995;-76
2023/06/05 02:46:50;;;;;;;;;;;11.90;99.90;;;;;;4896570;29;19931;-77
2023/06/05 02:49:16;;;;;;;;;;;12.20;99.90;;;;;;4897113;29;19927;-77
2023/06/05 02:51:41;;;;;;;;;;;11.80;99.90;;;;;;4879215;29;19931;-77
2023/06/05 02:54:07;;;;;;;;;;;11.80;99.90;;;;;;4880505;29;19927;-76
2023/06/05 02:56:33;;;;;;;;;;;11.80;99.90;;;;;;4882431;29;19927;-75
2023/06/05 02:59:02;;;;;;;;;;;12.10;99.90;;;;;;4899480;29;19935;-77
2023/06/05 03:01:34;;;;;;;;;;;12.20;99.90;;;;;;4894840;29;20267;-76
2023/06/05 03:04:02;;;;;;;;;;;11.80;99.90;;;;;;4897056;29;19927;-76
2023/06/05 03:06:33;;;;;;;;;;;11.80;99.90;;;;;;4896777;29;19927;-77
2023/06/05 03:08:59;;;;;;;;;;;11.80;99.90;;;;;;4899144;29;20017;-76
2023/06/05 03:11:25;;;;;;;;;;;12.00;99.90;;;;;;4897916;29;20060;-77
2023/06/05 03:13:51;;;;;;;;;;;11.80;99.90;;;;;;4881652;29;20014;-76
2023/06/05 03:16:17;;;;;;;;;;;11.80;99.90;;;;;;4877790;29;19967;-76
2023/06/05 03:18:43;;;;;;;;;;;11.70;99.90;;;;;;4884848;29;19934;-76
2023/06/05 03:21:10;;;;;;;;;;;11.70;99.90;;;;;;4898734;29;19927;-78
2023/06/05 03:23:36;;;;;;;;;;;11.70;99.90;;;;;;4898496;29;20417;-77
2023/06/05 03:26:02;;;;;;;;;;;11.70;99.90;;;;;;4899291;29;20011;-77
2023/06/05 03:28:28;;;;;;;;;;;11.80;99.90;;;;;;4882803;29;20405;-78
2023/06/05 03:30:54;;;;;;;;;;;11.80;99.90;;;;;;4899385;29;20421;-77
2023/06/05 03:33:20;;;;;;;;;;;11.80;99.90;;;;;;4896144;29;19967;-76
2023/06/05 03:35:46;;;;;;;;;;;11.80;99.90;;;;;;4899543;29;19950;-76
2023/06/05 03:38:11;;;;;;;;;;;11.70;99.90;;;;;;4900260;29;20282;-76
2023/06/05 03:40:39;;;;;;;;;;;11.70;99.90;;;;;;4897167;29;20034;-76
2023/06/05 03:43:05;;;;;;;;;;;11.70;99.90;;;;;;4897227;29;19928;-77
2023/06/05 03:45:31;;;;;;;;;;;11.70;99.90;;;;;;4897093;29;20296;-76
2023/06/05 03:47:59;;;;;;;;;;;11.70;99.90;;;;;;4896879;29;19935;-75
2023/06/05 03:50:28;;;;;;;;;;;11.70;99.90;;;;;;4904153;29;19927;-76
2023/06/05 03:53:01;;;;;;;;;;;11.70;99.90;;;;;;4881516;29;19927;-77
2023/06/05 03:55:40;;;;;;;;;;;11.70;99.90;;;;;;4895980;29;20026;-76
2023/06/05 03:58:13;;;;;;;;;;;11.70;99.90;;;;;;4896835;29;19935;-76
2023/06/05 04:00:38;;;;;;;;;;;11.70;99.90;;;;;;4882650;29;19927;-76
2023/06/05 04:03:04;;;;;;;;;;;12.00;99.90;;;;;;4898818;29;19950;-78
2023/06/05 04:05:30;;;;;;;;;;;11.80;99.90;;;;;;4879333;29;19932;-79
2023/06/05 04:07:58;;;;;;;;;;;11.80;99.90;;;;;;4881632;29;20010;-79
2023/06/05 04:10:24;;;;;;;;;;;11.80;99.90;;;;;;4899571;29;19958;-78
2023/06/05 04:12:49;;;;;;;;;;;11.80;99.90;;;;;;4894776;29;20105;-79
2023/06/05 04:15:15;;;;;;;;;;;11.80;99.90;;;;;;4883957;29;19942;-79
2023/06/05 04:17:41;;;;;;;;;;;11.80;99.90;;;;;;4903385;29;19927;-78
2023/06/05 04:20:13;;;;;;;;;;;11.90;99.90;;;;;;4888410;29;20006;-78
2023/06/05 04:22:39;;;;;;;;;;;12.00;99.90;;;;;;4887286;29;19927;-79
2023/06/05 04:25:04;;;;;;;;;;;12.90;99.90;;;;;;4899537;29;19927;-78
2023/06/05 04:27:30;;;;;;;;;;;12.00;99.90;;;;;;4900176;29;19971;-78
2023/06/05 04:29:56;;;;;;;;;;;12.00;99.90;;;;;;4904592;29;19907;-78
2023/06/05 04:32:22;;;;;;;;;;;12.00;99.90;;;;;;4898917;29;19931;-79
2023/06/05 04:34:47;;;;;;;;;;;12.00;99.90;;;;;;4879710;29;19927;-78
2023/06/05 04:37:13;;;;;;;;;;;12.10;99.90;;;;;;4901937;29;19928;-79
2023/06/05 04:39:43;;;;;;;;;;;12.10;99.90;;;;;;4901590;29;19935;-80
2023/06/05 04:42:24;;;;;;;;;;;12.00;99.90;;;;;;4890046;29;19927;-79
2023/06/05 04:44:57;;;;;;;;;;;12.10;99.90;;;;;;4898535;29;19955;-78
2023/06/05 04:47:22;;;;;;;;;;;12.10;99.90;;;;;;4895065;29;19935;-78
2023/06/05 04:51:00;;;;;;;7.78;3.63;;;12.10;99.90;;;;;;5118451;27;20406;-77
2023/06/05 04:53:31;;;;;;;5.38;3.20;;;12.10;99.90;;;;;;5118014;27;20048;-79
2023/06/05 04:56:00;;;;;;;5.80;3.42;;;12.20;99.90;;;;;;5122742;27;20057;-77
2023/06/05 04:58:26;;;;;;;5.03;3.20;;;12.20;99.90;;;;;;5122001;27;20106;-77
2023/06/05 05:00:56;;;;;;;8.35;3.28;;;12.20;99.90;;;;;;5110453;27;20081;-77
2023/06/05 05:03:22;;;;;;;4.80;3.53;;;12.20;99.90;;;;;;5099311;27;20056;-78
2023/06/05 05:05:47;;;;;;;6.22;3.60;;;12.20;99.90;;;;;;5140495;27;20038;-76
2023/06/05 05:08:13;;;;;;;5.57;3.25;;;12.20;99.90;;;;;;5125452;27;20544;-78
2023/06/05 05:10:39;;;;;;;7.25;3.65;;;12.30;99.90;;;;;;5123635;27;20040;-77
2023/06/05 05:13:04;;;;;;;6.53;3.38;;;12.40;99.90;;;;;;5130125;27;20078;-77
2023/06/05 05:15:30;;;;;;;5.07;3.55;;;12.30;99.90;;;;;;5107692;27;20036;-78
2023/06/05 05:17:56;;;;;;;5.75;3.50;;;12.30;99.90;;;;;;5123310;27;20044;-77
2023/06/05 05:20:22;;;;;;;5.50;3.25;;;12.50;99.90;;;;;;5123589;27;20511;-77
2023/06/05 05:22:48;;;;;;;4.90;2.95;;;13.40;99.90;;;;;;5122543;27;20071;-76
2023/06/05 05:25:14;;;;;;;4.90;3.30;;;12.60;99.90;;;;;;5123320;27;20116;-76
2023/06/05 05:27:40;;;;;;;6.13;3.33;;;12.50;99.90;;;;;;5119378;27;20400;-77
2023/06/05 05:30:07;;;;;;;4.30;3.00;;;12.70;99.90;;;;;;5129293;27;20042;-76
2023/06/05 05:32:32;;;;;;;4.78;3.13;;;12.60;99.90;;;;;;5094938;28;20392;-76
2023/06/05 05:34:58;;;;;;;8.57;3.22;;;12.60;99.90;;;;;;5116735;27;20143;-77
2023/06/05 05:37:33;;;;;;;7.03;3.50;;;12.70;99.90;;;;;;5124431;27;20115;-77
2023/06/05 05:39:58;;;;;;;5.68;3.40;;;12.60;99.90;;;;;;5100981;27;20058;-76
2023/06/05 05:42:24;;;;;;;6.03;2.92;;;12.60;99.90;;;;;;5125903;27;20047;-76
2023/06/05 05:44:50;;;;;;;4.68;2.90;;;12.60;99.90;;;;;;5121637;27;20052;-77
2023/06/05 05:47:15;;;;;;;5.63;2.70;;;12.50;99.90;;;;;;5123553;27;20066;-78
2023/06/05 05:49:41;;;;;;;4.30;2.38;;;12.80;99.90;;;;;;5124065;27;20086;-77
2023/06/05 05:52:07;;;;;;;2.88;2.30;;;13.40;99.90;;;;;;5080851;28;20036;-79
2023/06/05 05:54:32;;;;;;;5.88;2.88;;;12.80;99.90;;;;;;5133045;27;20098;-78
2023/06/05 05:56:58;;;;;;;4.45;2.65;;;13.00;99.90;;;;;;5104089;28;20044;-78
2023/06/05 05:59:23;;;;;;;3.15;2.35;;;12.90;99.90;;;;;;5118353;27;20350;-79
2023/06/05 06:01:49;;;;;;;6.43;2.40;;;12.90;99.90;;;;;;5093941;27;20036;-79
2023/06/05 06:04:18;;;;;;;4.03;2.50;;;12.90;99.90;;;;;;5083560;28;20168;-77
2023/06/05 06:06:47;;;;;;;4.57;2.60;;;12.90;99.90;;;;;;5098941;28;20115;-77
2023/06/05 06:09:15;;;;;;;7.07;2.47;;;12.90;99.90;;;;;;5103703;28;20100;-77
2023/06/05 06:11:42;;;;;;;6.78;2.50;;;13.00;99.90;;;;;;5118603;27;20040;-79
2023/06/05 06:14:10;;;;;;;4.75;2.55;;;13.00;99.90;;;;;;5090032;28;20044;-78
2023/06/05 06:16:36;;;;;;;3.90;2.33;;;13.10;99.90;;;;;;5103015;27;20047;-77
2023/06/05 06:19:03;;;;;;;5.18;2.60;;;13.20;99.90;;;;;;5098207;27;20480;-77
2023/06/05 06:21:29;;;;;;;5.03;2.55;;;13.50;99.90;;;;;;5100311;28;20374;-77
2023/06/05 06:23:55;;;;;;;4.13;2.58;;;13.30;99.90;;;;;;5108133;28;20050;-77
2023/06/05 06:26:21;;;;;;;4.50;2.50;;;13.30;99.90;;;;;;5125156;27;20505;-77
2023/06/05 06:28:47;;;;;;;4.88;2.67;;;13.20;99.90;;;;;;5111827;27;20048;-76
2023/06/05 06:31:13;;;;;;;5.07;2.70;;;13.20;99.90;;;;;;5074030;28;20131;-77
2023/06/05 06:33:39;;;;;;;4.00;2.50;;;13.30;99.90;;;;;;5112517;27;20047;-77
2023/06/05 06:36:08;;;;;;;4.93;2.55;;;13.30;99.90;;;;;;5109769;28;20040;-77
2023/06/05 06:38:33;;;;;;;4.20;2.63;;;13.30;99.90;;;;;;5092613;27;20043;-77
2023/06/05 06:40:59;;;;;;;7.00;2.60;;;13.20;99.90;;;;;;5115676;27;20118;-78
2023/06/05 06:43:25;;;;;;;4.68;2.58;;;13.20;99.90;;;;;;5089876;28;20046;-78
2023/06/05 06:45:52;;;;;;;5.63;2.42;;;13.20;99.90;;;;;;5116376;27;20141;-77
2023/06/05 06:48:20;;;;;;;4.18;2.50;;;13.50;99.90;;;;;;5107379;28;20043;-78
2023/06/05 06:50:46;;;;;;;;;;;13.40;99.90;;;;;;5120389;27;20047;-78
2023/06/05 06:53:12;;;;;;;3.90;2.47;;;13.60;99.90;;;;;;5099353;28;19924;-78
2023/06/05 06:55:38;;;;;;;4.18;2.58;;;13.90;99.90;;;;;;5124031;27;20086;-79
2023/06/05 06:58:04;;;;;;;4.20;2.83;;;14.20;99.90;;;;;;5096653;28;20039;-77
2023/06/05 07:00:33;;;;;;;4.95;2.63;;;14.60;99.90;;;;;;5087237;28;20144;-78
2023/06/05 07:02:59;;;;;;;4.20;2.60;;;14.70;99.90;;;;;;5078802;28;20501;-79
2023/06/05 07:05:25;;;;;;;4.85;2.80;;;14.80;99.90;;;;;;5083842;28;20036;-79
2023/06/05 07:07:51;;;;;;;3.67;2.63;;;15.10;99.90;;;;;;5087296;28;20619;-77
2023/06/05 07:10:16;;;;;;;7.32;3.00;;;15.20;99.90;;;;;;5098195;28;20036;-78
2023/06/05 07:12:42;;;;;;;3.78;2.55;;;15.30;99.90;;;;;;5084852;28;20043;-78
2023/06/05 07:15:08;;;;;;;3.58;2.45;;;15.30;99.90;;;;;;5088807;28;20046;-79
2023/06/05 07:17:34;;;;;;;4.00;2.50;;;15.30;99.90;;;;;;5090002;28;20032;-78
2023/06/05 07:19:59;;;;;;;4.72;2.60;;;15.20;99.90;;;;;;5092528;28;20043;-79
2023/06/05 07:22:30;;;;;;;5.25;3.20;;;15.00;99.90;;;;;;5090822;28;20046;-77
2023/06/05 07:24:58;;;;;;;6.35;3.40;;;14.90;99.90;;;;;;5086853;28;20043;-77
2023/06/05 07:27:24;;;;;;;5.30;3.10;;;14.80;99.90;;;;;;5096402;28;20445;-77
2023/06/05 07:29:53;;;;;;;5.15;3.03;;;14.90;99.90;;;;;;5097306;28;20043;-78
2023/06/05 07:32:20;;;;;;;4.85;2.67;;;14.90;99.90;;;;;;5090832;28;20086;-77
2023/06/05 07:34:46;;;;;;;3.65;2.53;;;15.00;99.90;;;;;;5095136;28;20050;-79
2023/06/05 07:37:12;;;;;;;4.90;2.92;;;15.30;99.90;;;;;;5099502;28;20084;-78
2023/06/05 07:39:37;;;;;;;5.25;2.60;;;15.40;99.90;;;;;;5090188;28;20036;-78
2023/06/05 07:42:03;;;;;;;4.38;2.53;;;15.60;99.90;;;;;;5088918;28;20577;-77
2023/06/05 07:44:29;;;;;;;8.07;3.28;;;15.60;99.90;;;;;;5076857;28;20089;-79
2023/06/05 07:46:55;;;;;;;4.15;2.63;;;15.70;99.90;;;;;;5091638;28;20036;-78
2023/06/05 07:49:23;;;;;;;6.55;2.88;;;15.70;99.90;;;;;;5088712;28;20082;-78
2023/06/05 07:51:50;;;;;;;4.82;3.05;;;16.00;99.90;;;;;;5076719;28;20052;-78
2023/06/05 07:54:16;;;;;;;5.93;3.50;;;15.70;99.90;;;;;;5067097;28;20437;-79
2023/06/05 07:56:42;;;;;;;3.47;2.70;;;15.90;99.90;;;;;;5059214;28;20037;-78
2023/06/05 07:59:08;;;;;;;3.90;2.35;;;16.00;99.90;;;;;;5078495;28;20041;-78
2023/06/05 08:01:37;;;;;;;5.55;2.53;;;16.10;99.90;;;;;;5069779;28;21640;-77
2023/06/05 08:04:07;;;;;;;4.75;2.78;;;16.20;99.90;;;;;;5073581;28;20032;-77
2023/06/05 08:06:37;;;;;;;7.55;2.75;;;16.30;99.90;;;;;;5075026;28;20063;-78
2023/06/05 08:09:09;;;;;;;6.07;2.85;;;16.30;99.90;;;;;;5071717;28;20045;-79
2023/06/05 08:11:36;;;;;;;5.00;2.58;;;16.20;99.90;;;;;;5053526;28;20040;-78
2023/06/05 08:14:03;;;;;;;5.95;3.30;;;16.30;99.90;;;;;;5065940;28;20036;-78
2023/06/05 08:16:29;;;;;;;5.82;2.90;;;16.40;99.90;;;;;;5087778;28;20063;-78
2023/06/05 08:18:57;;;;;;;3.85;2.80;;;16.50;99.90;;;;;;5069583;28;20040;-78
2023/06/05 08:21:23;;;;;;;4.22;2.85;;;17.10;99.90;;;;;;5071953;28;20073;-77
2023/06/05 08:23:48;;;;;;;5.05;2.60;;;16.90;99.90;;;;;;5060979;28;20409;-78
2023/06/05 08:26:14;;;;;;;3.53;2.50;;;16.90;99.90;;;;;;5062945;28;20052;-78
2023/06/05 08:28:41;;;;;;;4.70;2.83;;;17.50;99.90;;;;;;5075135;28;20076;-80
2023/06/05 08:31:10;;;;;;;5.05;3.28;;;17.50;99.90;;;;;;5061461;28;20040;-78
2023/06/05 08:33:37;;;;;;;4.57;2.90;;;17.30;99.90;;;;;;5072203;28;20032;-79
2023/06/05 08:36:06;;;;;;;4.80;2.95;;;17.30;99.90;;;;;;5061274;28;20420;-79
2023/06/05 08:38:33;;;;;;;4.72;2.88;;;17.10;99.90;;;;;;5068718;28;20048;-79
2023/06/05 08:41:10;;;;;;;4.28;2.95;;;16.80;99.90;;;;;;5074594;28;20044;-77
2023/06/05 08:43:40;;;;;;;5.20;3.05;;;16.70;99.90;;;;;;5061158;28;20048;-78
2023/06/05 08:46:08;;;;;;;5.78;3.08;;;16.40;99.90;;;;;;5068112;28;20120;-77
2023/06/05 08:48:40;;;;;;;7.85;3.10;;;16.50;99.90;;;;;;5075332;28;20509;-79
2023/06/05 08:51:15;;;;;;;6.82;3.55;;;16.50;99.90;;;;;;5116278;28;20051;-77
2023/06/05 08:53:57;;;;;;;5.05;3.00;;;16.40;99.90;;;;;;5103722;28;20490;-78
2023/06/05 08:56:25;;;;;;;4.97;2.92;;;16.50;99.90;;;;;;5105569;28;20485;-78
2023/06/05 08:58:53;;;;;;;7.35;3.53;;;16.60;99.90;;;;;;5084013;28;20068;-78
2023/06/05 09:01:19;;;;;;;4.22;3.10;;;16.50;99.90;;;;;;5105963;28;20040;-78
2023/06/05 09:03:45;;;;;;;5.20;3.05;;;16.50;99.90;;;;;;5113284;28;20044;-79
2023/06/05 09:06:11;;;;;;;4.93;3.38;;;16.50;99.90;;;;;;5105265;28;20040;-79
2023/06/05 09:08:37;;;;;;;5.32;3.00;;;17.40;99.90;;;;;;5102170;28;20137;-79
2023/06/05 09:11:29;;;;;;;4.43;3.08;;;16.80;99.90;;;;;;5110303;28;20087;-77
2023/06/05 09:13:56;;;;;;;5.82;3.03;;;16.90;99.90;;;;;;5111690;28;20044;-80
2023/06/05 09:16:31;;;;;;;5.80;3.25;;;17.30;99.90;;;;;;5111182;28;20039;-80
2023/06/05 09:18:58;;;;;;;4.40;2.95;;;17.30;99.90;;;;;;5109254;28;20046;-78
2023/06/05 09:21:29;;;;;;;10.05;3.17;;;17.40;99.90;;;;;;5112483;28;20044;-77
2023/06/05 09:24:09;;;;;;;6.25;3.00;;;17.50;99.90;;;;;;5125480;28;20032;-79
2023/06/05 09:26:51;;;;;;;5.78;2.90;;;17.50;99.90;;;;;;5075224;28;20044;-78
2023/06/05 09:29:29;;;;;;;4.45;3.20;;;17.60;99.90;;;;;;5094634;28;20054;-78
2023/06/05 09:31:57;;;;;;;4.65;2.85;;;17.60;99.90;;;;;;5094106;28;20161;-79
2023/06/05 09:34:31;;;;;;;6.63;2.92;;;17.70;99.90;;;;;;5116339;28;20085;-79
2023/06/05 09:37:00;;;;;;;3.78;2.63;;;18.10;99.90;;;;;;5114076;28;20040;-78
2023/06/05 09:39:27;;;;;;;5.53;2.80;;;18.20;99.90;;;;;;5118229;28;20060;-78
2023/06/05 09:41:54;;;;;;;6.93;2.90;;;18.00;99.90;;;;;;5121317;27;20032;-82
2023/06/05 09:44:23;;;;;;;10.23;3.03;;;18.00;99.90;;;;;;5114621;27;20036;-77
2023/06/05 09:46:55;;;;;;;4.70;3.10;;;18.00;99.90;;;;;;5087236;28;20048;-78
2023/06/05 09:49:24;;;;;;;3.50;2.42;;;18.00;99.90;;;;;;5112189;28;20093;-78
2023/06/05 09:51:49;;;;;;;5.05;3.15;;;18.00;99.90;;;;;;5094598;28;20412;-79
2023/06/05 09:54:17;;;;;;;6.00;3.35;;;17.90;99.90;;;;;;5115494;28;20050;-77
2023/06/05 09:56:50;;;;;;;6.80;2.78;;;18.10;99.90;;;;;;5120376;27;20044;-79
2023/06/05 09:59:24;;;;;;;4.38;2.97;;;17.90;99.90;;;;;;5105959;28;20119;-79
2023/06/05 10:01:52;;;;;;;4.80;2.75;;;18.10;99.90;;;;;;5112094;28;20044;-77
2023/06/05 10:04:23;;;;;;;4.88;3.35;;;18.00;99.90;;;;;;5089859;28;20040;-77
2023/06/05 10:06:51;;;;;;;4.32;3.08;;;18.00;99.90;;;;;;5078225;28;20493;-78
2023/06/05 10:09:17;;;;;;;5.47;2.70;;;18.00;99.90;;;;;;5118543;27;20039;-77
2023/06/05 10:11:43;;;;;;;4.65;2.92;;;17.90;99.90;;;;;;5074183;28;20044;-77
2023/06/05 10:14:09;;;;;;;4.47;2.60;;;17.90;99.90;;;;;;5102743;28;20096;-78
2023/06/05 10:16:35;;;;;;;6.63;2.70;;;18.00;99.90;;;;;;5062974;28;20044;-77
2023/06/05 10:19:03;;;;;;;3.63;2.50;;;17.90;99.90;;;;;;5112045;28;20046;-78
2023/06/05 10:21:30;;;;;;;5.53;3.00;;;18.00;99.90;;;;;;5089417;28;20043;-80
2023/06/05 10:24:03;;;;;;;4.95;2.50;;;18.00;99.90;;;;;;5105874;28;20111;-77
2023/06/05 10:26:46;;;;;;;5.82;2.80;;;18.20;99.90;;;;;;5097848;28;20088;-78
2023/06/05 10:29:42;;;;;;;4.60;2.70;;;18.10;99.90;;;;;;5092605;28;20040;-77
2023/06/05 10:32:31;;;;;;;4.78;3.00;;;18.30;99.90;;;;;;5117952;27;20130;-79
2023/06/05 10:35:12;;;;;;;4.60;2.33;;;18.40;99.90;;;;;;5078420;28;20067;-80
2023/06/05 10:38:11;;;;;;;4.43;2.45;;;18.40;99.90;;;;;;5111258;28;20052;-79
2023/06/05 10:40:37;;;;;;;4.38;2.60;;;18.70;99.90;;;;;;5105711;27;20111;-78
2023/06/05 10:43:34;;;;;;;3.92;2.30;;;18.60;99.90;;;;;;5113979;28;20074;-78
2023/06/05 10:46:21;;;;;;;5.57;2.47;;;18.70;99.90;;;;;;5113321;28;20043;-77
2023/06/05 10:49:07;;;;;;;4.22;2.30;;;18.70;99.90;;;;;;5107814;28;20052;-77
2023/06/05 10:51:40;;;;;;;6.03;2.45;;;18.70;99.90;;;;;;5089485;28;20055;-78
2023/06/05 10:54:07;;;;;;;4.15;2.65;;;18.70;99.90;;;;;;5107611;28;20051;-78
2023/06/05 10:56:59;;;;;;;3.57;2.40;;;18.70;99.90;;;;;;5101332;28;20041;-76
2023/06/05 10:59:34;;;;;;;6.35;2.63;;;18.80;99.90;;;;;;5079910;28;20047;-77
2023/06/05 11:02:08;;;;;;;7.22;2.70;;;18.70;99.90;;;;;;5104739;28;20082;-78
2023/06/05 11:04:48;;;;;;;3.22;2.38;;;18.80;99.90;;;;;;5106286;28;20054;-79
2023/06/05 11:07:21;;;;;;;6.05;2.40;;;18.90;99.90;;;;;;5090671;28;20078;-80
2023/06/05 11:10:05;;;;;;;6.03;2.50;;;19.10;99.90;;;;;;5131376;27;20468;-77
2023/06/05 11:12:40;;;;;;;5.07;2.45;;;19.40;99.90;;;;;;5110391;28;20117;-78
2023/06/05 11:15:08;;;;;;;6.10;2.85;;;19.50;99.90;;;;;;5101767;28;20071;-79
2023/06/05 11:17:41;;;;;;;;;;;19.60;99.90;;;;;;5113681;27;20090;-78
2023/06/05 11:20:09;;;;;;;5.65;2.78;;;19.70;99.90;;;;;;5106204;28;19920;-78
2023/06/05 11:22:53;;;;;;;5.45;2.38;;;19.70;99.90;;;;;;5094995;28;20035;-78
2023/06/05 11:25:24;;;;;;;3.78;2.30;;;19.90;99.90;;;;;;5106248;28;20058;-79
2023/06/05 11:27:55;;;;;;;3.58;2.33;;;20.00;99.90;;;;;;5118063;28;20052;-77
2023/06/05 11:30:24;;;;;;;4.13;2.55;;;20.10;99.60;;;;;;5105016;28;20036;-78
2023/06/05 11:32:58;;;;;;;3.95;2.75;;;20.10;99.00;;;;;;5110373;28;20058;-77
2023/06/05 11:35:28;;;;;;;5.95;2.75;;;20.00;99.40;;;;;;5128885;27;20040;-78
2023/06/05 11:38:10;;;;;;;5.93;2.90;;;19.70;99.80;;;;;;5112141;27;20076;-79
2023/06/05 11:40:37;;;;;;;6.68;3.33;;;19.90;99.90;;;;;;5115300;27;20079;-82
2023/06/05 11:43:05;;;;;;;5.13;2.33;;;19.90;99.00;;;;;;5099826;27;20134;-79
2023/06/05 11:45:32;;;;;;;;;;;19.90;99.10;;;;;;5099145;28;20067;-80
2023/06/05 11:48:09;;;;;;;4.63;2.67;;;20.00;99.50;;;;;;5121693;27;20006;-77
2023/06/05 11:50:58;;;;;;;3.40;2.28;;;20.10;98.30;;;;;;5128812;27;20058;-79
2023/06/05 11:53:28;;;;;;;3.55;2.47;;;20.00;98.90;;;;;;5104235;27;20040;-78
2023/06/05 11:56:06;;;;;;;;;;;19.90;99.30;;;;;;5105404;27;20040;-79
2023/06/05 11:58:35;;;;;;;3.55;2.28;;;19.90;99.30;;;;;;5082767;28;19931;-78
2023/06/05 12:01:14;;;;;;;3.72;2.22;;;19.90;99.40;;;;;;5069512;28;20071;-78
2023/06/05 12:03:44;;;;;;;4.75;2.38;;;20.00;99.70;;;;;;5087604;28;20043;-78
2023/06/05 12:06:12;;;;;;;5.75;3.55;;;20.20;99.20;;;;;;5105922;27;20047;-78
2023/06/05 12:08:39;;;;;;;3.55;2.38;;;20.10;99.00;;;;;;5124001;27;20043;-78
2023/06/05 12:11:25;;;;;;;5.72;2.40;;;20.00;98.50;;;;;;5116347;27;20139;-79
2023/06/05 12:13:55;;;;;;;5.55;2.40;;;19.90;98.70;;;;;;5109812;28;20044;-77
2023/06/05 12:16:38;;;;;;;8.65;2.60;;;19.70;99.30;;;;;;5096675;28;20087;-77
2023/06/05 12:19:17;;;;;;;9.40;2.35;;;19.80;99.30;;;;;;5082794;28;20044;-79
2023/06/05 12:21:48;;;;;;;6.30;2.60;;;19.60;99.50;;;;;;5095448;28;20100;-78
2023/06/05 12:24:14;;;;;;;4.45;2.50;;;19.70;99.00;;;;;;5098898;28;20128;-77
2023/06/05 12:26:58;;;;;;;5.07;2.60;;;19.60;99.00;;;;;;5100651;27;20020;-79
2023/06/05 12:29:29;;;;;;;8.00;3.13;;;19.60;99.30;;;;;;5106142;28;20047;-78
2023/06/05 12:32:00;;;;;;;5.97;2.70;;;19.60;99.60;;;;;;5099604;28;20109;-79
2023/06/05 12:34:46;;;;;;;5.60;3.15;;;19.70;99.40;;;;;;5109216;27;20066;-78
2023/06/05 12:37:31;;;;;;;5.25;3.45;;;19.70;98.90;;;;;;5119523;27;20119;-77
2023/06/05 12:40:01;;;;;;;3.97;2.85;;;19.70;99.50;;;;;;5092906;28;20046;-77
2023/06/05 12:42:28;;;;;;;6.68;2.80;;;19.60;99.20;;;;;;5109850;28;20039;-78
2023/06/05 12:44:54;;;;;;;5.68;2.78;;;19.50;99.50;;;;;;5086298;28;20065;-79
2023/06/05 12:47:20;;;;;;;4.43;2.80;;;19.40;99.80;;;;;;5128563;27;20460;-77
2023/06/05 12:49:46;;;;;;;8.43;3.40;;;19.40;99.60;;;;;;5091874;28;20051;-80
2023/06/05 12:52:12;;;;;;;5.13;2.90;;;19.40;99.90;;;;;;5089226;28;20044;-79
2023/06/05 12:54:38;;;;;;;4.50;3.50;;;19.40;99.60;;;;;;5084205;28;20050;-79
2023/06/05 12:57:07;;;;;;;7.20;3.40;;;19.40;99.70;;;;;;5098107;28;20059;-78
2023/06/05 12:59:33;;;;;;;6.25;3.53;;;19.30;99.70;;;;;;5096006;28;20119;-77
2023/06/05 13:01:58;;;;;;;7.20;3.40;;;19.20;99.90;;;;;;5103967;28;20068;-78
2023/06/05 13:04:24;;;;;;;6.07;3.40;;;19.40;99.90;;;;;;5119195;28;20046;-77
2023/06/05 13:06:50;;;;;;;7.82;3.85;;;19.60;99.90;;;;;;5096865;28;20039;-76
2023/06/05 13:09:16;;;;;;;5.55;3.22;;;19.60;99.40;;;;;;5099376;28;20035;-76
2023/06/05 13:11:42;;;;;;;5.40;3.35;;;19.50;99.50;;;;;;5115062;28;20032;-76
2023/06/05 13:14:08;;;;;;;5.30;3.80;;;19.50;99.20;;;;;;5117768;27;20069;-76
2023/06/05 13:16:33;;;;;;;4.75;3.55;;;19.80;99.90;;;;;;5116470;28;20670;-76
2023/06/05 13:18:59;;;;;;;5.80;3.22;;;19.50;99.20;;;;;;5112464;27;20048;-76
2023/06/05 13:21:25;;;;;;;5.35;3.80;;;19.30;99.60;;;;;;5094890;27;20051;-76
2023/06/05 13:23:51;;;;;;;5.72;3.50;;;19.20;99.70;;;;;;5104086;28;20428;-77
2023/06/05 13:26:18;;;;;;;5.80;3.65;;;19.20;99.70;;;;;;5117891;28;20035;-78